SVMC/MAR METAR and TAF weather

Enter ICAO airport designator
Station Type Date Time Source
SVMC METAR 2020/01/06 11:00 UTC NOAA

SVMC 061100Z 36001KT 9999 FEW013 23/22 Q1013


Station Type Date Time Source
SVMC Decoded METAR 2020/01/06 11:00 UTC NOAA

Maracaibo-La Chinita, Venezuela (SVMC) 10-34N 071-44W 65M
Jan 06, 2020 - 06:00 AM EST / 2020.01.06 1100 UTC
Wind: from the N (360 degrees) at 1 MPH (1 KT):0
Visibility: greater than 7 mile(s):0
Sky conditions: mostly clear
Temperature: 73 F (23 C)
Dew Point: 71 F (22 C)
Relative Humidity: 94%
Pressure (altimeter): 29.91 in. Hg (1013 hPa)
ob: SVMC 061100Z 36001KT 9999 FEW013 23/22 Q1013
cycle: 11

Station Type Date Time Source
SVMC TAF 2020/01/20 12:03 UTC NOAA

TAF SVMC 201000Z 2012/2112 07015G20KT 9999 FEW010 SCT060 TX32/18Z TN25/08Z
TEMPO 2012/2016 02003KT 8000 +TSDZ BKN010CB

Example: see airport list